Time;durP1;ratioP1;P1;durP2;ratioP2;P2;SDS_P1;SDS_P2;PMS_P1;PMS_P2;Temp;Humidity;BMP_temperature;BMP_pressure;BME280_temperature;BME280_humidity;BME280_pressure;Samples;Min_cycle;Max_cycle;Signal;HPM_P1;HPM_P2
2022/11/22 00:01:03;;;;;;;35.45;11.88;;;3.90;99.90;;;;;;5075107;28;20053;-72
2022/11/22 00:03:29;;;;;;;37.95;12.30;;;3.90;99.90;;;;;;5074888;28;20048;-75
2022/11/22 00:05:55;;;;;;;31.70;11.65;;;3.90;99.90;;;;;;5074842;28;20048;-73
2022/11/22 00:08:21;;;;;;;36.75;12.13;;;3.90;99.90;;;;;;5056809;28;20491;-70
2022/11/22 00:10:50;;;;;;;34.95;12.00;;;4.00;99.90;;;;;;5074507;28;20044;-71
2022/11/22 00:13:17;;;;;;;34.40;12.02;;;4.00;99.90;;;;;;5056981;28;20045;-69
2022/11/22 00:15:44;;;;;;;33.45;11.07;;;3.90;99.90;;;;;;5056894;28;20040;-71
2022/11/22 00:18:10;;;;;;;37.08;11.98;;;4.00;99.90;;;;;;5075001;28;20052;-71
2022/11/22 00:20:36;;;;;;;32.17;12.35;;;4.10;99.90;;;;;;5056982;28;20078;-70
2022/11/22 00:23:02;;;;;;;24.90;9.40;;;3.90;99.90;;;;;;5056846;28;20127;-70
2022/11/22 00:25:28;;;;;;;33.13;12.50;;;4.00;99.90;;;;;;5074587;28;20140;-75
2022/11/22 00:27:54;;;;;;;30.63;12.07;;;3.90;99.90;;;;;;5074910;28;20084;-72
2022/11/22 00:30:20;;;;;;;32.20;12.20;;;3.90;99.90;;;;;;5057323;28;20465;-71
2022/11/22 00:32:46;;;;;;;33.75;12.13;;;3.90;99.90;;;;;;5056655;28;20051;-70
2022/11/22 00:35:12;;;;;;;34.33;12.35;;;3.90;99.90;;;;;;5074694;28;20098;-72
2022/11/22 00:37:37;;;;;;;34.33;12.45;;;3.90;99.90;;;;;;5057339;28;20465;-70
2022/11/22 00:40:04;;;;;;;33.63;11.45;;;4.00;99.90;;;;;;5075083;28;20123;-72
2022/11/22 00:42:30;;;;;;;35.92;12.30;;;4.00;99.90;;;;;;5055411;28;20095;-72
2022/11/22 00:44:56;;;;;;;32.95;12.70;;;4.00;99.90;;;;;;5074236;28;20083;-71
2022/11/22 00:47:21;;;;;;;30.67;11.30;;;4.00;99.90;;;;;;5056854;28;20087;-72
2022/11/22 00:49:47;;;;;;;30.48;11.63;;;4.00;99.90;;;;;;5074247;28;20044;-71
2022/11/22 00:52:13;;;;;;;28.55;10.10;;;4.00;99.90;;;;;;5056322;28;20040;-69
2022/11/22 00:54:39;;;;;;;32.88;11.27;;;4.00;99.90;;;;;;5073989;28;20132;-72
2022/11/22 00:57:04;;;;;;;32.55;12.63;;;3.90;99.90;;;;;;5056558;28;20052;-74
2022/11/22 00:59:30;;;;;;;27.98;11.02;;;4.00;99.90;;;;;;5073837;28;20116;-74
2022/11/22 01:01:56;;;;;;;27.90;9.55;;;4.00;99.90;;;;;;5073664;28;20182;-71
2022/11/22 01:04:22;;;;;;;32.13;12.40;;;4.00;99.90;;;;;;5056704;28;20082;-70
2022/11/22 01:06:47;;;;;;;34.78;11.70;;;4.00;99.90;;;;;;5039235;28;20059;-71
2022/11/22 01:09:18;;;;;;;27.27;9.85;;;4.00;99.90;;;;;;5073706;28;20149;-72
2022/11/22 01:11:44;;;;;;;30.95;12.18;;;4.00;99.90;;;;;;5073843;28;20106;-71
2022/11/22 01:14:10;;;;;;;28.20;10.20;;;4.10;99.90;;;;;;5073563;28;20087;-71
2022/11/22 01:16:36;;;;;;;29.77;12.18;;;4.10;99.90;;;;;;5073314;28;20517;-72
2022/11/22 01:19:02;;;;;;;34.03;11.05;;;4.10;99.90;;;;;;5055639;28;20047;-70
2022/11/22 01:21:27;;;;;;;28.65;10.25;;;4.10;99.90;;;;;;5039187;28;20186;-70
2022/11/22 01:23:53;;;;;;;26.13;10.40;;;4.10;99.90;;;;;;5073451;28;20079;-72
2022/11/22 01:26:19;;;;;;;28.92;11.35;;;4.20;99.90;;;;;;5055744;28;20528;-72
2022/11/22 01:28:45;;;;;;;30.08;11.27;;;4.20;99.90;;;;;;5073171;28;20409;-71
2022/11/22 01:31:11;;;;;;;32.35;10.90;;;4.20;99.90;;;;;;5055889;28;20040;-72
2022/11/22 01:33:36;;;;;;;30.73;11.20;;;4.30;99.90;;;;;;5073381;28;20041;-75
2022/11/22 01:36:02;;;;;;;34.22;10.88;;;4.20;99.90;;;;;;5073347;28;20104;-73
2022/11/22 01:38:28;;;;;;;27.95;10.52;;;4.20;99.90;;;;;;5073605;28;20045;-71
2022/11/22 01:40:54;;;;;;;27.60;10.85;;;4.30;99.90;;;;;;5055629;28;20530;-70
2022/11/22 01:43:22;;;;;;;30.02;11.25;;;4.20;99.90;;;;;;5073119;28;20472;-71
2022/11/22 01:45:56;;;;;;;29.60;11.20;;;4.30;99.90;;;;;;5055515;28;20044;-72
2022/11/22 01:48:37;;;;;;;24.27;9.48;;;4.30;99.90;;;;;;5073766;28;20063;-71
2022/11/22 01:51:30;;;;;;;24.25;9.57;;;4.30;99.90;;;;;;5073652;28;20092;-71
2022/11/22 01:54:01;;;;;;;24.05;9.05;;;4.30;99.90;;;;;;5072865;28;20053;-72
2022/11/22 01:56:29;;;;;;;30.45;11.00;;;4.40;99.90;;;;;;5073158;28;20108;-72
2022/11/22 01:59:00;;;;;;;26.75;9.88;;;4.40;99.90;;;;;;5055115;28;20209;-73
2022/11/22 02:01:27;;;;;;;34.10;9.77;;;4.40;99.90;;;;;;5073054;28;20040;-71
2022/11/22 02:03:54;;;;;;;32.00;10.48;;;4.40;99.90;;;;;;5055060;28;20048;-71
2022/11/22 02:06:21;;;;;;;26.92;9.60;;;4.40;99.90;;;;;;5072724;28;20044;-70
2022/11/22 02:08:58;;;;;;;27.85;10.07;;;4.50;99.90;;;;;;5038649;28;20446;-71
2022/11/22 02:11:25;;;;;;;26.38;10.10;;;4.50;99.90;;;;;;5054875;28;20049;-70
2022/11/22 02:13:52;;;;;;;29.65;11.35;;;4.50;99.90;;;;;;5072771;28;20110;-73
2022/11/22 02:16:18;;;;;;;30.40;10.98;;;4.40;99.90;;;;;;5072868;28;20045;-72
2022/11/22 02:18:44;;;;;;;27.50;11.25;;;4.40;99.90;;;;;;5072748;28;20187;-76
2022/11/22 02:21:10;;;;;;;27.52;10.05;;;4.40;99.90;;;;;;5072769;28;20130;-73
2022/11/22 02:24:03;;;;;;;29.88;10.55;;;4.40;99.90;;;;;;5072957;28;20040;-76
2022/11/22 02:26:31;;;;;;;26.52;9.70;;;4.40;99.90;;;;;;5072591;28;20083;-72
2022/11/22 02:29:04;;;;;;;22.85;8.60;;;4.40;99.90;;;;;;5073237;28;20177;-70
2022/11/22 02:31:34;;;;;;;33.35;10.23;;;4.50;99.90;;;;;;5055297;28;20485;-73
2022/11/22 02:34:00;;;;;;;22.25;9.57;;;4.50;99.90;;;;;;5072461;28;20044;-72
2022/11/22 02:36:26;;;;;;;23.95;8.50;;;4.60;99.90;;;;;;5055539;28;20054;-72
2022/11/22 02:38:52;;;;;;;32.10;11.10;;;4.60;99.90;;;;;;5054815;28;20415;-72
2022/11/22 02:41:18;;;;;;;24.33;9.10;;;4.50;99.90;;;;;;5072821;28;20047;-73
2022/11/22 02:43:46;;;;;;;30.38;10.10;;;4.50;99.90;;;;;;5055132;28;20398;-78
2022/11/22 02:46:19;;;;;;;28.73;10.93;;;4.50;99.90;;;;;;5054918;28;20419;-71
2022/11/22 02:48:46;;;;;;;30.02;11.48;;;4.50;99.90;;;;;;5055487;28;20469;-76
2022/11/22 02:51:15;;;;;;;26.90;9.80;;;4.60;99.90;;;;;;5054348;28;20481;-71
2022/11/22 02:53:42;;;;;;;24.77;8.38;;;4.50;99.90;;;;;;5072415;28;20106;-72
2022/11/22 02:56:08;;;;;;;31.75;11.27;;;4.50;99.90;;;;;;5054546;28;20051;-71
2022/11/22 02:58:34;;;;;;;27.92;10.55;;;4.50;99.90;;;;;;5037904;28;20044;-70
2022/11/22 03:00:59;;;;;;;28.02;10.43;;;4.50;99.90;;;;;;5054571;28;20106;-70
2022/11/22 03:03:25;;;;;;;30.20;11.25;;;4.50;99.90;;;;;;5038082;28;20080;-71
2022/11/22 03:05:51;;;;;;;29.15;10.73;;;4.40;99.90;;;;;;5023820;28;20055;-71
2022/11/22 03:08:17;;;;;;;31.13;9.95;;;4.50;99.90;;;;;;5059160;28;20053;-72
2022/11/22 03:10:42;;;;;;;29.90;9.65;;;4.60;99.90;;;;;;5058176;28;20049;-73
2022/11/22 03:13:08;;;;;;;28.65;10.60;;;4.60;99.90;;;;;;5075931;28;20123;-71
2022/11/22 03:15:34;;;;;;;29.38;10.18;;;4.60;99.90;;;;;;5042168;28;20135;-70
2022/11/22 03:18:01;;;;;;;25.60;9.73;;;4.70;99.90;;;;;;5075804;28;20541;-71
2022/11/22 03:20:27;;;;;;;28.33;10.02;;;4.70;99.90;;;;;;5076642;28;20054;-71
2022/11/22 03:22:53;;;;;;;28.27;10.88;;;4.70;99.90;;;;;;5075830;28;20044;-71
2022/11/22 03:25:19;;;;;;;29.48;11.10;;;4.70;99.90;;;;;;5058306;28;20053;-70
2022/11/22 03:27:44;;;;;;;26.10;10.50;;;4.70;99.90;;;;;;5075671;28;20055;-70
2022/11/22 03:30:10;;;;;;;31.45;10.50;;;4.60;99.90;;;;;;5058276;28;20048;-71
2022/11/22 03:32:36;;;;;;;25.38;9.43;;;4.70;99.90;;;;;;5076237;28;20049;-70
2022/11/22 03:35:03;;;;;;;28.55;9.45;;;4.80;99.90;;;;;;5077153;28;20048;-71
2022/11/22 03:37:29;;;;;;;29.30;10.75;;;4.80;99.90;;;;;;5078001;28;20072;-71
2022/11/22 03:39:55;;;;;;;26.40;10.48;;;4.80;99.90;;;;;;5059669;28;20052;-70
2022/11/22 03:42:20;;;;;;;20.95;8.43;;;4.80;99.90;;;;;;5060018;28;20052;-75
2022/11/22 03:44:46;;;;;;;26.20;9.93;;;4.90;99.90;;;;;;5076605;28;20097;-71
2022/11/22 03:47:12;;;;;;;25.50;8.98;;;4.80;99.90;;;;;;5076021;28;20115;-73
2022/11/22 03:49:38;;;;;;;30.92;9.13;;;4.90;99.90;;;;;;5058459;28;20101;-72
2022/11/22 03:52:03;;;;;;;27.27;9.15;;;5.00;99.90;;;;;;5058086;28;20049;-72
2022/11/22 03:54:29;;;;;;;31.15;9.05;;;5.00;99.90;;;;;;5075497;28;20440;-71
2022/11/22 03:56:55;;;;;;;23.90;8.90;;;5.00;99.90;;;;;;5057517;28;20045;-72
2022/11/22 03:59:21;;;;;;;24.02;9.50;;;5.00;99.90;;;;;;5075140;28;20050;-70
2022/11/22 04:01:46;;;;;;;25.40;8.95;;;5.10;99.90;;;;;;5057364;28;20045;-72
2022/11/22 04:04:12;;;;;;;25.75;10.30;;;5.10;99.90;;;;;;5075129;28;20102;-70
2022/11/22 04:06:38;;;;;;;24.80;7.40;;;5.00;99.90;;;;;;5075794;28;20082;-71
2022/11/22 04:09:04;;;;;;;23.97;9.57;;;5.10;99.90;;;;;;5075047;28;20067;-71
2022/11/22 04:11:30;;;;;;;24.25;9.60;;;5.20;99.90;;;;;;5057173;28;20091;-71
2022/11/22 04:16:40;;;;;;;24.85;9.15;;;5.30;99.90;;;;;;5056623;28;20060;-71
2022/11/22 04:19:06;;;;;;;26.45;9.55;;;5.30;99.90;;;;;;5075322;28;20392;-77
2022/11/22 04:21:35;;;;;;;24.95;9.35;;;5.20;99.90;;;;;;5075281;28;20498;-70
2022/11/22 04:26:47;;;;;;;27.70;9.73;;;5.30;99.90;;;;;;5074749;28;20135;-72
2022/11/22 04:29:14;;;;;;;25.25;10.00;;;5.40;99.90;;;;;;5056899;28;20137;-72
2022/11/22 04:34:24;;;;;;;28.17;9.35;;;5.30;99.90;;;;;;5074376;28;20055;-72
2022/11/22 04:36:50;;;;;;;27.35;9.95;;;5.30;99.90;;;;;;5056660;28;20040;-70
2022/11/22 04:39:15;;;;;;;27.00;9.23;;;5.30;99.90;;;;;;5056808;28;20096;-72
2022/11/22 04:41:41;;;;;;;30.83;9.88;;;5.30;99.90;;;;;;5040429;28;20036;-75
2022/11/22 04:46:55;;;;;;;23.90;9.27;;;5.40;99.90;;;;;;5074280;28;20057;-75
2022/11/22 04:49:21;;;;;;;24.60;9.32;;;5.40;99.90;;;;;;5057235;28;20097;-72
2022/11/22 04:54:31;;;;;;;26.30;9.95;;;5.30;99.90;;;;;;5057117;28;20409;-73
2022/11/22 04:56:57;;;;;;;30.20;9.65;;;5.20;99.90;;;;;;5056769;28;20049;-76
2022/11/22 04:59:22;;;;;;;26.58;9.63;;;5.30;99.90;;;;;;5074270;28;20041;-71
2022/11/22 05:01:48;;;;;;;25.15;9.23;;;5.40;99.90;;;;;;5056910;28;20036;-70
2022/11/22 05:04:14;;;;;;;27.63;9.95;;;5.40;99.90;;;;;;5073429;28;20512;-72
2022/11/22 05:06:39;;;;;;;28.98;10.05;;;5.40;99.90;;;;;;5039355;28;20123;-71
2022/11/22 05:09:05;;;;;;;28.25;9.75;;;5.40;99.90;;;;;;5073804;28;20063;-73
2022/11/22 05:11:31;;;;;;;23.70;9.70;;;5.40;99.90;;;;;;5073894;28;20492;-72
2022/11/22 05:13:56;;;;;;;29.38;9.50;;;5.40;99.90;;;;;;5055573;28;20064;-74
2022/11/22 05:16:22;;;;;;;30.45;10.00;;;5.40;99.90;;;;;;5074084;28;20383;-71
2022/11/22 05:18:57;;;;;;;27.30;11.07;;;5.40;99.90;;;;;;5073760;28;20095;-72
2022/11/22 05:21:25;;;;;;;32.05;9.77;;;5.40;99.90;;;;;;5073669;28;20053;-72
2022/11/22 05:23:53;;;;;;;;;;;5.50;99.90;;;;;;5073997;28;20102;-71
2022/11/22 05:26:30;;;;;;;25.60;8.93;;;5.60;99.90;;;;;;5073376;28;19976;-72
2022/11/22 05:28:59;;;;;;;;;;;5.50;99.90;;;;;;5073460;28;20084;-71
2022/11/22 05:31:26;;;;;;;22.77;8.13;;;5.50;99.90;;;;;;5073392;28;19924;-73
2022/11/22 05:33:53;;;;;;;20.25;7.90;;;5.40;99.90;;;;;;5073273;28;20048;-73
2022/11/22 05:36:20;;;;;;;27.20;9.20;;;5.40;99.90;;;;;;5073596;28;20108;-72
2022/11/22 05:38:46;;;;;;;26.77;8.60;;;5.40;99.90;;;;;;5072827;28;20041;-72
2022/11/22 05:41:13;;;;;;;25.98;8.88;;;5.40;99.90;;;;;;5073248;28;20054;-73
2022/11/22 05:43:40;;;;;;;26.05;8.85;;;5.40;99.90;;;;;;5055048;28;20124;-71
2022/11/22 05:46:17;;;;;;;27.60;9.10;;;5.40;99.90;;;;;;5073405;28;20048;-74
2022/11/22 05:48:44;;;;;;;23.25;9.00;;;5.40;99.90;;;;;;5073615;28;20302;-74
2022/11/22 05:51:14;;;;;;;;;;;5.30;99.90;;;;;;5055422;28;20044;-71
2022/11/22 05:53:41;;;;;;;21.73;7.88;;;5.30;99.90;;;;;;5055478;28;20043;-71
2022/11/22 05:56:12;;;;;;;23.23;8.15;;;5.20;99.90;;;;;;5072701;28;20151;-72
2022/11/22 05:58:38;;;;;;;30.25;8.60;;;5.10;99.90;;;;;;5072803;28;20051;-74
2022/11/22 06:01:06;;;;;;;25.95;8.07;;;5.10;99.90;;;;;;5073393;28;20048;-71
2022/11/22 06:03:32;;;;;;;25.02;8.27;;;4.90;99.90;;;;;;5073093;28;20369;-71
2022/11/22 06:05:58;;;;;;;30.23;8.32;;;4.90;99.90;;;;;;5054720;28;20041;-72
2022/11/22 06:08:24;;;;;;;30.73;8.15;;;4.80;99.90;;;;;;5072881;28;20501;-72
2022/11/22 06:10:49;;;;;;;21.02;7.28;;;4.80;99.90;;;;;;5072965;28;20037;-73
2022/11/22 06:13:15;;;;;;;28.08;7.63;;;4.70;99.90;;;;;;5072393;28;20522;-73
2022/11/22 06:15:41;;;;;;;27.95;7.80;;;4.60;99.90;;;;;;5054620;28;20049;-75
2022/11/22 06:18:07;;;;;;;26.00;8.13;;;4.70;99.90;;;;;;5054584;28;20127;-80
2022/11/22 06:20:32;;;;;;;25.75;8.20;;;4.60;99.90;;;;;;5054523;28;20091;-73
2022/11/22 06:22:58;;;;;;;22.58;8.32;;;4.60;99.90;;;;;;5072992;28;20041;-73
2022/11/22 06:25:24;;;;;;;33.53;7.50;;;4.50;99.90;;;;;;5072144;28;20128;-72
2022/11/22 06:27:50;;;;;;;27.52;7.57;;;4.40;99.90;;;;;;5072383;28;20152;-71
2022/11/22 06:30:16;;;;;;;25.20;7.50;;;4.40;99.90;;;;;;5055140;28;20135;-73
2022/11/22 06:32:41;;;;;;;25.60;7.43;;;4.30;99.90;;;;;;5054664;28;20040;-71
2022/11/22 06:35:08;;;;;;;35.20;8.00;;;4.30;99.90;;;;;;5073039;28;20048;-78
2022/11/22 06:37:33;;;;;;;26.80;7.03;;;4.30;99.90;;;;;;5054791;28;20051;-72
2022/11/22 06:39:59;;;;;;;27.13;7.53;;;4.30;99.90;;;;;;5074198;28;20040;-72
2022/11/22 06:42:25;;;;;;;27.55;7.15;;;4.30;99.90;;;;;;5058454;28;20573;-75
2022/11/22 06:44:50;;;;;;;25.38;6.65;;;4.20;99.90;;;;;;5076452;28;20040;-73
2022/11/22 06:47:16;;;;;;;29.50;6.70;;;4.30;99.90;;;;;;5041618;28;20048;-73
2022/11/22 06:49:44;;;;;;;27.73;6.65;;;4.30;99.90;;;;;;5042161;28;20040;-72
2022/11/22 06:52:10;;;;;;;19.85;6.18;;;4.30;99.90;;;;;;5042166;28;20049;-77
2022/11/22 06:54:35;;;;;;;27.55;7.80;;;4.30;99.90;;;;;;5076433;28;20045;-71
2022/11/22 06:57:01;;;;;;;30.17;7.53;;;4.30;99.90;;;;;;5076276;28;20477;-72
2022/11/22 06:59:27;;;;;;;31.40;6.05;;;4.30;99.90;;;;;;5041873;28;20127;-73
2022/11/22 07:01:52;;;;;;;29.63;6.30;;;4.30;99.90;;;;;;5075997;28;20396;-71
2022/11/22 07:04:18;;;;;;;29.33;6.25;;;4.20;99.90;;;;;;5076083;28;20064;-72
2022/11/22 07:06:44;;;;;;;25.60;5.60;;;4.20;99.90;;;;;;5057984;28;20076;-71
2022/11/22 07:09:10;;;;;;;27.27;6.15;;;4.20;99.90;;;;;;5058972;28;20123;-73
2022/11/22 07:11:37;;;;;;;20.13;5.20;;;4.20;99.90;;;;;;5058165;28;20041;-72
2022/11/22 07:14:04;;;;;;;21.75;5.70;;;4.10;99.90;;;;;;5036007;28;20276;-72
2022/11/22 07:16:30;;;;;;;23.55;4.65;;;4.10;99.90;;;;;;5035673;28;20526;-74
2022/11/22 07:18:58;;;;;;;23.45;6.35;;;4.10;99.90;;;;;;5034797;28;20128;-75
2022/11/22 07:21:24;;;;;;;21.00;5.07;;;4.30;99.90;;;;;;5036428;28;20124;-72
2022/11/22 07:23:53;;;;;;;22.40;4.82;;;4.20;99.90;;;;;;5035258;28;20386;-72
2022/11/22 07:26:21;;;;;;;24.48;4.88;;;4.10;99.90;;;;;;5035659;28;20048;-75
2022/11/22 07:28:47;;;;;;;23.70;4.43;;;4.20;99.90;;;;;;5034772;28;20416;-73
2022/11/22 07:31:14;;;;;;;24.15;5.05;;;4.10;99.90;;;;;;5036096;28;20106;-72
2022/11/22 07:33:41;;;;;;;21.10;4.20;;;4.10;99.90;;;;;;5034670;28;20425;-73
2022/11/22 07:36:16;;;;;;;27.08;4.40;;;4.00;99.90;;;;;;5034240;28;20478;-72
2022/11/22 07:38:42;;;;;;;23.67;4.30;;;4.10;99.90;;;;;;5034410;28;20049;-73
2022/11/22 07:41:08;;;;;;;27.05;4.88;;;4.10;99.90;;;;;;5033978;28;20041;-73
2022/11/22 07:43:34;;;;;;;25.90;4.38;;;4.20;99.90;;;;;;5034195;28;20149;-72
2022/11/22 07:46:02;;;;;;;19.50;3.42;;;4.20;99.90;;;;;;5034158;28;20050;-72
2022/11/22 07:48:28;;;;;;;19.25;3.42;;;4.20;99.90;;;;;;5035334;28;20045;-71
2022/11/22 07:50:54;;;;;;;17.58;3.22;;;4.20;99.90;;;;;;5033869;28;20047;-72
2022/11/22 07:53:19;;;;;;;24.73;3.85;;;4.30;99.90;;;;;;5034995;28;20124;-72
2022/11/22 07:55:45;;;;;;;25.17;3.65;;;4.30;99.90;;;;;;5034087;28;20067;-72
2022/11/22 07:58:11;;;;;;;22.92;3.60;;;4.30;99.90;;;;;;5035173;28;20037;-73
2022/11/22 08:00:36;;;;;;;26.42;3.30;;;4.30;99.90;;;;;;5034713;28;20091;-74
2022/11/22 08:03:02;;;;;;;19.88;3.40;;;4.30;99.90;;;;;;5036106;28;20080;-74
2022/11/22 08:05:28;;;;;;;19.17;3.58;;;4.30;99.90;;;;;;5017434;28;20045;-71
2022/11/22 08:07:54;;;;;;;24.73;4.45;;;4.30;99.90;;;;;;5033985;28;20061;-71
2022/11/22 08:10:21;;;;;;;18.70;2.97;;;4.40;99.90;;;;;;5035591;28;20115;-70
2022/11/22 08:12:46;;;;;;;18.50;3.00;;;4.30;99.90;;;;;;5026450;28;20060;-73
2022/11/22 08:15:14;;;;;;;17.88;3.33;;;4.50;99.90;;;;;;5037556;28;20045;-72
2022/11/22 08:17:40;;;;;;;;;;;4.50;99.90;;;;;;5055271;28;20052;-72
2022/11/22 08:20:10;;;;;;;16.63;2.83;;;4.50;99.90;;;;;;5054967;28;19920;-73
2022/11/22 08:22:39;;;;;;;13.90;3.17;;;4.50;99.90;;;;;;5037496;28;20084;-72
2022/11/22 08:25:11;;;;;;;22.17;3.60;;;4.50;99.90;;;;;;5053685;28;20060;-71
2022/11/22 08:27:38;;;;;;;28.90;3.55;;;4.60;99.90;;;;;;5054098;28;20045;-71
2022/11/22 08:30:04;;;;;;;26.45;4.72;;;4.60;99.90;;;;;;5054115;28;20065;-72
2022/11/22 08:32:29;;;;;;;19.25;3.20;;;4.60;99.90;;;;;;5054107;28;20137;-74
2022/11/22 08:34:55;;;;;;;21.58;3.13;;;4.70;99.90;;;;;;5038456;28;20419;-71
2022/11/22 08:37:21;;;;;;;24.70;2.53;;;4.70;99.90;;;;;;5055708;28;20037;-72
2022/11/22 08:39:46;;;;;;;21.23;3.38;;;4.80;99.90;;;;;;5054744;28;20045;-72
2022/11/22 08:42:12;;;;;;;17.13;2.60;;;4.80;99.90;;;;;;5053809;28;20134;-71
2022/11/22 08:44:37;;;;;;;27.55;2.90;;;4.80;99.90;;;;;;5055991;28;20045;-71
2022/11/22 08:47:03;;;;;;;17.02;2.45;;;4.90;99.90;;;;;;5054549;28;20080;-74
2022/11/22 08:49:29;;;;;;;12.50;2.50;;;4.90;99.90;;;;;;5054939;28;20055;-73
2022/11/22 08:51:54;;;;;;;13.52;2.10;;;4.90;99.90;;;;;;5052994;28;20508;-71
2022/11/22 08:54:20;;;;;;;21.42;3.33;;;4.90;99.90;;;;;;5052844;28;20487;-82
2022/11/22 08:56:46;;;;;;;15.95;2.55;;;5.00;99.90;;;;;;5053593;28;20094;-70
2022/11/22 08:59:11;;;;;;;15.52;2.20;;;5.10;99.90;;;;;;5019711;28;20040;-72
2022/11/22 09:01:37;;;;;;;21.52;2.28;;;5.20;99.90;;;;;;5052527;28;20376;-76
2022/11/22 09:04:03;;;;;;;23.58;3.45;;;5.30;99.90;;;;;;5051552;28;20100;-72
2022/11/22 09:06:30;;;;;;;11.73;2.92;;;5.40;99.90;;;;;;5053552;28;20479;-71
2022/11/22 09:08:56;;;;;;;24.98;2.78;;;5.50;99.90;;;;;;5053530;28;20481;-71
2022/11/22 09:11:22;;;;;;;19.17;3.10;;;5.60;99.90;;;;;;5052239;28;20124;-78
2022/11/22 09:13:47;;;;;;;15.55;2.90;;;5.70;99.90;;;;;;5018266;28;20053;-73
2022/11/22 09:16:16;;;;;;;17.13;3.67;;;5.70;99.90;;;;;;5035720;28;20052;-73
2022/11/22 09:18:42;;;;;;;14.77;2.85;;;5.90;99.90;;;;;;5052163;28;20081;-71
2022/11/22 09:21:16;;;;;;;14.07;2.35;;;6.00;99.90;;;;;;5052412;28;20041;-71
2022/11/22 09:23:44;;;;;;;16.90;3.20;;;6.20;99.90;;;;;;5053846;28;20045;-72
2022/11/22 09:26:13;;;;;;;20.25;2.40;;;6.10;99.90;;;;;;5053294;28;20091;-70
2022/11/22 09:28:39;;;;;;;19.30;2.38;;;6.10;99.90;;;;;;5052059;28;20056;-72
2022/11/22 09:31:07;;;;;;;15.25;2.92;;;6.20;99.90;;;;;;5035592;28;20049;-71
2022/11/22 09:33:35;;;;;;;16.55;2.65;;;6.20;99.90;;;;;;5053372;28;20417;-73
2022/11/22 09:36:04;;;;;;;13.45;1.83;;;6.30;99.90;;;;;;5053299;28;20094;-73
2022/11/22 09:38:31;;;;;;;15.35;2.72;;;6.30;99.90;;;;;;5052923;28;20056;-72
2022/11/22 09:40:58;;;;;;;14.55;2.22;;;6.30;99.90;;;;;;5053208;28;20547;-71
2022/11/22 09:43:44;;;;;;;11.23;1.90;;;6.30;99.90;;;;;;5051744;28;20041;-77
2022/11/22 09:46:18;;;;;;;9.30;1.60;;;6.40;99.90;;;;;;5052175;28;20049;-71
2022/11/22 09:48:59;;;;;;;17.13;2.20;;;6.40;99.90;;;;;;5053139;28;20105;-72
2022/11/22 09:51:33;;;;;;;13.30;3.20;;;6.50;99.90;;;;;;5052867;28;20057;-74
2022/11/22 09:54:07;;;;;;;13.35;2.30;;;6.50;99.90;;;;;;5053140;28;20049;-71
2022/11/22 09:56:34;;;;;;;16.40;1.90;;;6.50;99.90;;;;;;5053071;28;20124;-72
2022/11/22 09:59:18;;;;;;;13.10;1.83;;;6.60;99.90;;;;;;5052829;28;20061;-70
2022/11/22 10:01:58;;;;;;;15.45;2.67;;;6.60;99.90;;;;;;5053686;28;20103;-73
2022/11/22 10:04:54;;;;;;;11.73;2.35;;;6.60;99.90;;;;;;5053023;28;20037;-72
2022/11/22 10:07:28;;;;;;;13.13;1.95;;;6.60;99.90;;;;;;5052689;28;20097;-72
2022/11/22 10:10:10;;;;;;;18.02;1.88;;;6.60;99.90;;;;;;5034855;28;20139;-72
2022/11/22 10:13:04;;;;;;;15.27;1.92;;;6.70;99.90;;;;;;5060626;28;20056;-70
2022/11/22 10:15:56;;;;;;;10.52;1.65;;;6.80;99.90;;;;;;5072589;28;20392;-71
2022/11/22 10:18:37;;;;;;;11.60;1.90;;;6.90;99.90;;;;;;5072558;28;20059;-73
2022/11/22 10:21:03;;;;;;;11.88;1.85;;;6.80;99.90;;;;;;5054734;28;20048;-71
2022/11/22 10:23:31;;;;;;;18.98;2.20;;;6.90;99.90;;;;;;5072527;28;20123;-73
2022/11/22 10:26:27;;;;;;;15.05;1.92;;;7.00;99.90;;;;;;5054922;28;20048;-70
2022/11/22 10:29:02;;;;;;;19.90;2.60;;;6.90;99.90;;;;;;5070604;28;20493;-70
2022/11/22 10:31:48;;;;;;;8.40;1.48;;;6.90;99.90;;;;;;5073420;28;20060;-73
2022/11/22 10:34:32;;;;;;;9.13;1.48;;;6.80;99.90;;;;;;5057236;28;20119;-71
2022/11/22 10:37:13;;;;;;;14.43;1.58;;;6.80;99.90;;;;;;5072684;28;20060;-71
2022/11/22 10:39:49;;;;;;;10.45;1.88;;;6.70;99.90;;;;;;5073331;28;20435;-71
2022/11/22 10:42:30;;;;;;;12.75;1.73;;;6.80;99.90;;;;;;5054452;28;20052;-73
2022/11/22 10:45:35;;;;;;;10.82;1.70;;;6.80;99.90;;;;;;5054757;28;20041;-71
2022/11/22 10:48:08;;;;;;;10.52;1.52;;;6.80;99.90;;;;;;5072602;28;20045;-70
2022/11/22 10:50:55;;;;;;;8.25;1.40;;;6.90;99.90;;;;;;5055306;28;20408;-73
2022/11/22 10:53:26;;;;;;;;;;;6.90;99.90;;;;;;5072824;28;20044;-72
2022/11/22 10:56:16;;;;;;;11.63;1.90;;;7.00;99.90;;;;;;5072535;28;20014;-71
2022/11/22 10:58:56;;;;;;;10.88;1.33;;;7.00;99.90;;;;;;5072805;28;20051;-72
2022/11/22 11:01:30;;;;;;;9.90;1.88;;;7.10;99.90;;;;;;5073044;28;20098;-72
2022/11/22 11:03:59;;;;;;;13.75;1.30;;;7.10;99.90;;;;;;5038649;28;20060;-72
2022/11/22 11:06:55;;;;;;;8.90;1.23;;;7.20;99.90;;;;;;5072076;28;20051;-71
2022/11/22 11:09:44;;;;;;;12.82;1.33;;;7.30;99.90;;;;;;5070100;28;20105;-72
2022/11/22 11:12:24;;;;;;;16.45;2.65;;;7.40;99.90;;;;;;5054066;28;20048;-72
2022/11/22 11:14:57;;;;;;;15.68;2.63;;;7.40;99.90;;;;;;5072214;28;20057;-72
2022/11/22 11:17:27;;;;;;;10.55;1.60;;;7.60;99.90;;;;;;5054905;28;20040;-72
2022/11/22 11:19:56;;;;;;;5.65;1.40;;;7.60;99.90;;;;;;5055095;28;20048;-72
2022/11/22 11:22:24;;;;;;;13.32;2.15;;;7.70;99.90;;;;;;5054243;28;20500;-73
2022/11/22 11:24:50;;;;;;;7.35;1.10;;;7.70;99.90;;;;;;5072978;28;20401;-72
2022/11/22 11:27:19;;;;;;;17.58;1.73;;;7.70;99.90;;;;;;5057105;28;20083;-73
2022/11/22 11:30:00;;;;;;;11.65;1.83;;;7.70;99.90;;;;;;5075673;28;20044;-71
2022/11/22 11:32:26;;;;;;;8.88;1.30;;;7.70;99.90;;;;;;5058609;28;20419;-71
2022/11/22 11:34:56;;;;;;;9.88;1.38;;;7.70;99.90;;;;;;5075680;28;20127;-71
2022/11/22 11:37:37;;;;;;;10.07;1.10;;;7.80;99.90;;;;;;5075724;28;20040;-71
2022/11/22 11:40:04;;;;;;;9.27;1.60;;;7.70;99.90;;;;;;5075724;28;20098;-72
2022/11/22 11:42:32;;;;;;;20.77;1.95;;;7.80;99.90;;;;;;5041609;28;20059;-72
2022/11/22 11:45:20;;;;;;;8.55;1.23;;;7.80;99.90;;;;;;5057488;28;20040;-72
2022/11/22 11:47:46;;;;;;;14.00;1.17;;;7.80;99.90;;;;;;5075055;28;20563;-72
2022/11/22 11:50:20;;;;;;;11.70;1.20;;;7.80;99.90;;;;;;5040853;28;20123;-71
2022/11/22 11:53:21;;;;;;;16.45;1.20;;;7.80;99.90;;;;;;5024471;28;20051;-73
2022/11/22 11:55:46;;;;;;;11.00;1.38;;;7.90;99.90;;;;;;5057541;28;20044;-71
2022/11/22 11:58:19;;;;;;;10.43;1.52;;;7.90;99.90;;;;;;5075203;28;20071;-71
2022/11/22 12:00:45;;;;;;;7.70;1.40;;;7.90;99.90;;;;;;5075221;28;20044;-75
2022/11/22 12:03:15;;;;;;;11.23;1.63;;;7.90;99.90;;;;;;5040705;28;20044;-76
2022/11/22 12:05:41;;;;;;;8.27;1.15;;;8.00;99.90;;;;;;5057278;28;20040;-72
2022/11/22 12:08:36;;;;;;;15.38;1.63;;;8.00;99.90;;;;;;5057146;28;20032;-73
2022/11/22 12:11:08;;;;;;;7.20;1.00;;;7.90;99.90;;;;;;5053336;28;20147;-73
2022/11/22 12:13:48;;;;;;;11.63;1.58;;;7.90;99.90;;;;;;5075225;28;20061;-72
2022/11/22 12:16:24;;;;;;;16.95;1.90;;;7.90;99.90;;;;;;5058117;28;20051;-73
2022/11/22 12:19:16;;;;;;;7.80;1.00;;;8.00;99.90;;;;;;5075358;28;20085;-71
2022/11/22 12:22:09;;;;;;;15.52;1.40;;;8.00;99.90;;;;;;5043987;28;20057;-74
2022/11/22 12:24:49;;;;;;;14.57;1.50;;;7.90;99.90;;;;;;5074909;28;20060;-73
2022/11/22 12:27:15;;;;;;;8.18;1.40;;;7.90;99.90;;;;;;5074925;28;20040;-74
2022/11/22 12:29:45;;;;;;;10.90;1.33;;;8.00;99.90;;;;;;5074709;28;20037;-73
2022/11/22 12:32:37;;;;;;;8.20;0.98;;;7.90;99.90;;;;;;5074735;28;20040;-74
2022/11/22 12:35:17;;;;;;;9.48;1.13;;;7.90;99.90;;;;;;5074619;28;20094;-72
2022/11/22 12:38:03;;;;;;;7.03;1.25;;;7.90;99.90;;;;;;5073734;28;20090;-73
2022/11/22 12:40:39;;;;;;;10.93;0.90;;;7.90;99.90;;;;;;5057616;28;20053;-72
2022/11/22 12:43:33;;;;;;;8.32;1.17;;;7.80;99.90;;;;;;5041019;28;20048;-73
2022/11/22 12:46:12;;;;;;;6.55;0.88;;;7.80;99.90;;;;;;5056680;28;20388;-71
2022/11/22 12:48:54;;;;;;;7.18;1.00;;;7.70;99.90;;;;;;5057059;28;20045;-73
2022/11/22 12:51:44;;;;;;;4.97;0.95;;;7.70;99.90;;;;;;5056675;28;20079;-73
2022/11/22 12:54:21;;;;;;;12.27;1.10;;;7.70;99.90;;;;;;5056809;28;20048;-71
2022/11/22 12:56:49;;;;;;;;;;;7.70;99.90;;;;;;5057733;28;20356;-75
2022/11/22 12:59:26;;;;;;;9.02;1.10;;;7.70;99.90;;;;;;5056392;28;20019;-70
2022/11/22 13:02:23;;;;;;;7.55;1.02;;;7.70;99.90;;;;;;5073998;28;20037;-71
2022/11/22 13:04:58;;;;;;;8.75;1.10;;;7.60;99.90;;;;;;5056402;28;20123;-71
2022/11/22 13:07:42;;;;;;;7.80;0.90;;;7.60;99.90;;;;;;5056383;28;20040;-73
2022/11/22 13:10:35;;;;;;;6.22;0.77;;;7.60;99.90;;;;;;5056477;28;20044;-72
2022/11/22 13:13:02;;;;;;;4.88;0.90;;;7.50;99.90;;;;;;5073781;28;20057;-71
2022/11/22 13:15:32;;;;;;;7.03;1.10;;;7.50;99.90;;;;;;5073875;28;20080;-71